CCM57EF LFKC-LFMN
Flight info
| Callsign | CCM57EF |
|---|---|
| Flight time | 0h 22m |
| Altitude | 12000 |
| Route | SODRI |
| Aircraft | A320/M-SDE3FGHIRWY/LB1 |
Departure
| Time | 2026-04-21 20:48 |
|---|---|
| Airport | Calvi Sainte Catherine Airport (LFKC) |
Arrival
| Time | 2026-04-21 21:11 |
|---|---|
| Airport | Nice-Côte d'Azur Airport (LFMN) |
| Time | Latitude | Longitude | Altitude | Speed | Heading |
|---|---|---|---|---|---|
| 2026-04-21 20:29 | 42.52470 | 8.79078 | 192 ft | 0 kts | 300° |
| 2026-04-21 20:43 | 42.52471 | 8.79078 | 192 ft | 1 kts | 310° |
| 2026-04-21 20:43 | 42.52477 | 8.79084 | 195 ft | 1 kts | 36° |
| 2026-04-21 20:43 | 42.52474 | 8.79133 | 192 ft | 7 kts | 116° |
| 2026-04-21 20:43 | 42.52441 | 8.79166 | 196 ft | 4 kts | 136° |
| 2026-04-21 20:44 | 42.52437 | 8.79183 | 193 ft | 0 kts | 105° |
| 2026-04-21 20:45 | 42.52435 | 8.79206 | 193 ft | 10 kts | 94° |
| 2026-04-21 20:45 | 42.52414 | 8.79294 | 195 ft | 8 kts | 153° |
| 2026-04-21 20:45 | 42.52341 | 8.79300 | 200 ft | 12 kts | 180° |
| 2026-04-21 20:45 | 42.52264 | 8.79300 | 206 ft | 13 kts | 180° |
| 2026-04-21 20:46 | 42.52174 | 8.79299 | 212 ft | 12 kts | 180° |
| 2026-04-21 20:46 | 42.52094 | 8.79280 | 217 ft | 12 kts | 207° |
| 2026-04-21 20:46 | 42.52060 | 8.79302 | 224 ft | 6 kts | 59° |
| 2026-04-21 20:46 | 42.52110 | 8.79302 | 218 ft | 0 kts | 360° |
| 2026-04-21 20:47 | 42.52123 | 8.79302 | 214 ft | 9 kts | 0° |
| 2026-04-21 20:47 | 42.52478 | 8.79302 | 205 ft | 95 kts | 360° |
| 2026-04-21 20:48 | 42.53379 | 8.79292 | 169 ft | 157 kts | 359° |
| 2026-04-21 20:48 | 42.54525 | 8.79279 | 753 ft | 165 kts | 0° |
| 2026-04-21 20:48 | 42.55662 | 8.79274 | 1612 ft | 164 kts | 0° |
| 2026-04-21 20:48 | 42.56862 | 8.79270 | 2084 ft | 184 kts | 0° |
| 2026-04-21 20:49 | 42.58171 | 8.78850 | 2494 ft | 209 kts | 326° |
| 2026-04-21 20:49 | 42.59070 | 8.77223 | 2904 ft | 235 kts | 293° |
| 2026-04-21 20:49 | 42.59739 | 8.75075 | 3484 ft | 258 kts | 296° |
| 2026-04-21 20:49 | 42.60688 | 8.72955 | 4420 ft | 267 kts | 306° |
| 2026-04-21 20:50 | 42.61837 | 8.70949 | 5471 ft | 271 kts | 310° |
| 2026-04-21 20:50 | 42.62984 | 8.69104 | 6462 ft | 275 kts | 311° |
| 2026-04-21 20:50 | 42.64234 | 8.67120 | 7519 ft | 278 kts | 311° |
| 2026-04-21 20:50 | 42.65485 | 8.65107 | 8568 ft | 280 kts | 309° |
| 2026-04-21 20:51 | 42.66667 | 8.62994 | 9595 ft | 283 kts | 305° |
| 2026-04-21 20:51 | 42.67805 | 8.60776 | 10454 ft | 293 kts | 304° |
| 2026-04-21 20:51 | 42.68972 | 8.58418 | 10825 ft | 317 kts | 303° |
| 2026-04-21 20:51 | 42.70337 | 8.55918 | 11122 ft | 342 kts | 310° |
| 2026-04-21 20:52 | 42.72092 | 8.53572 | 11385 ft | 364 kts | 319° |
| 2026-04-21 20:52 | 42.74210 | 8.51610 | 11837 ft | 373 kts | 329° |
| 2026-04-21 20:52 | 42.76591 | 8.50176 | 11949 ft | 377 kts | 335° |
| 2026-04-21 20:52 | 42.79062 | 8.48860 | 11972 ft | 384 kts | 336° |
| 2026-04-21 20:53 | 42.81559 | 8.47563 | 11969 ft | 385 kts | 336° |
| 2026-04-21 20:53 | 42.84064 | 8.46270 | 11972 ft | 385 kts | 336° |
| 2026-04-21 20:53 | 42.86569 | 8.44971 | 11972 ft | 385 kts | 336° |
| 2026-04-21 20:53 | 42.89034 | 8.43681 | 11967 ft | 385 kts | 336° |
| 2026-04-21 20:54 | 42.91535 | 8.42362 | 11974 ft | 385 kts | 336° |
| 2026-04-21 20:54 | 42.94032 | 8.41041 | 11965 ft | 385 kts | 336° |
| 2026-04-21 20:54 | 42.96525 | 8.39719 | 11969 ft | 385 kts | 336° |
| 2026-04-21 20:54 | 42.99025 | 8.38393 | 11975 ft | 385 kts | 336° |
| 2026-04-21 20:55 | 43.01464 | 8.36919 | 11974 ft | 383 kts | 329° |
| 2026-04-21 20:55 | 43.03695 | 8.34931 | 11972 ft | 382 kts | 321° |
| 2026-04-21 20:55 | 43.05542 | 8.32355 | 11977 ft | 380 kts | 305° |
| 2026-04-21 20:55 | 43.06824 | 8.29212 | 11981 ft | 379 kts | 296° |
| 2026-04-21 20:56 | 43.07992 | 8.25969 | 11975 ft | 380 kts | 296° |
| 2026-04-21 20:56 | 43.09128 | 8.22764 | 11984 ft | 379 kts | 296° |
| 2026-04-21 20:56 | 43.10276 | 8.19514 | 11978 ft | 379 kts | 296° |
| 2026-04-21 20:56 | 43.11431 | 8.16251 | 11975 ft | 379 kts | 296° |
| 2026-04-21 20:57 | 43.12575 | 8.13016 | 11975 ft | 379 kts | 296° |
| 2026-04-21 20:57 | 43.13721 | 8.09769 | 11980 ft | 379 kts | 296° |
| 2026-04-21 20:57 | 43.14867 | 8.06515 | 11976 ft | 379 kts | 295° |
| 2026-04-21 20:57 | 43.16018 | 8.03255 | 11977 ft | 380 kts | 296° |
| 2026-04-21 20:58 | 43.17168 | 8.00001 | 11975 ft | 380 kts | 296° |
| 2026-04-21 20:58 | 43.18316 | 7.96743 | 11975 ft | 380 kts | 296° |
| 2026-04-21 20:58 | 43.19466 | 7.93486 | 11982 ft | 380 kts | 296° |
| 2026-04-21 20:58 | 43.20530 | 7.90478 | 11978 ft | 380 kts | 296° |
| 2026-04-21 20:59 | 43.21682 | 7.87212 | 11945 ft | 380 kts | 296° |
| 2026-04-21 20:59 | 43.22826 | 7.83955 | 11676 ft | 378 kts | 296° |
| 2026-04-21 20:59 | 43.23947 | 7.80748 | 11268 ft | 365 kts | 295° |
| 2026-04-21 20:59 | 43.25013 | 7.77698 | 11141 ft | 344 kts | 295° |
| 2026-04-21 21:00 | 43.26018 | 7.74820 | 11015 ft | 326 kts | 295° |
| 2026-04-21 21:00 | 43.26971 | 7.72088 | 10890 ft | 310 kts | 295° |
| 2026-04-21 21:00 | 43.27880 | 7.69483 | 10764 ft | 296 kts | 295° |
| 2026-04-21 21:00 | 43.28748 | 7.66991 | 10617 ft | 284 kts | 295° |
| 2026-04-21 21:01 | 43.29590 | 7.64573 | 10383 ft | 279 kts | 295° |
| 2026-04-21 21:01 | 43.30426 | 7.62175 | 10129 ft | 278 kts | 295° |
| 2026-04-21 21:01 | 43.31250 | 7.59809 | 9917 ft | 278 kts | 295° |
| 2026-04-21 21:01 | 43.32084 | 7.57405 | 9797 ft | 280 kts | 295° |
| 2026-04-21 21:02 | 43.32921 | 7.54993 | 9669 ft | 280 kts | 295° |
| 2026-04-21 21:02 | 43.33760 | 7.52572 | 9543 ft | 281 kts | 295° |
| 2026-04-21 21:02 | 43.34600 | 7.50152 | 9413 ft | 281 kts | 295° |
| 2026-04-21 21:02 | 43.35447 | 7.47705 | 8868 ft | 286 kts | 295° |
| 2026-04-21 21:03 | 43.36300 | 7.45234 | 8317 ft | 288 kts | 295° |
| 2026-04-21 21:03 | 43.37153 | 7.42768 | 7964 ft | 284 kts | 295° |
| 2026-04-21 21:03 | 43.37999 | 7.40322 | 7510 ft | 282 kts | 295° |
| 2026-04-21 21:03 | 43.38823 | 7.37939 | 6887 ft | 279 kts | 295° |
| 2026-04-21 21:04 | 43.39652 | 7.35535 | 6212 ft | 277 kts | 295° |
| 2026-04-21 21:04 | 43.40474 | 7.33143 | 5539 ft | 276 kts | 295° |
| 2026-04-21 21:04 | 43.41293 | 7.30766 | 4869 ft | 275 kts | 295° |
| 2026-04-21 21:04 | 43.42089 | 7.28451 | 4624 ft | 259 kts | 295° |
| 2026-04-21 21:05 | 43.42828 | 7.26303 | 4519 ft | 238 kts | 295° |
| 2026-04-21 21:05 | 43.43503 | 7.24323 | 4416 ft | 219 kts | 295° |
| 2026-04-21 21:05 | 43.44129 | 7.22489 | 4319 ft | 205 kts | 295° |
| 2026-04-21 21:05 | 43.44718 | 7.20761 | 4231 ft | 196 kts | 295° |
| 2026-04-21 21:06 | 43.45290 | 7.19090 | 4145 ft | 196 kts | 295° |
| 2026-04-21 21:06 | 43.46029 | 7.17538 | 4057 ft | 194 kts | 316° |
| 2026-04-21 21:06 | 43.47142 | 7.16488 | 3917 ft | 197 kts | 338° |
| 2026-04-21 21:06 | 43.48488 | 7.16101 | 3579 ft | 200 kts | 358° |
| 2026-04-21 21:07 | 43.49886 | 7.15987 | 3265 ft | 202 kts | 357° |
| 2026-04-21 21:07 | 43.51298 | 7.15857 | 2950 ft | 205 kts | 357° |
| 2026-04-21 21:07 | 43.52703 | 7.15723 | 2738 ft | 202 kts | 357° |
| 2026-04-21 21:07 | 43.54109 | 7.15589 | 2442 ft | 203 kts | 357° |
| 2026-04-21 21:08 | 43.55516 | 7.15455 | 2204 ft | 201 kts | 356° |
| 2026-04-21 21:08 | 43.56841 | 7.15329 | 2040 ft | 183 kts | 356° |
| 2026-04-21 21:08 | 43.58025 | 7.15220 | 1942 ft | 160 kts | 357° |
| 2026-04-21 21:08 | 43.59098 | 7.15123 | 1694 ft | 150 kts | 356° |
| 2026-04-21 21:09 | 43.60118 | 7.15031 | 1455 ft | 144 kts | 356° |
| 2026-04-21 21:09 | 43.61100 | 7.15126 | 1253 ft | 141 kts | 19° |
| 2026-04-21 21:09 | 43.61921 | 7.15839 | 1052 ft | 140 kts | 46° |
| 2026-04-21 21:09 | 43.62602 | 7.16800 | 834 ft | 140 kts | 45° |
| 2026-04-21 21:10 | 43.63285 | 7.17756 | 625 ft | 139 kts | 45° |
| 2026-04-21 21:10 | 43.63964 | 7.18703 | 439 ft | 139 kts | 45° |
| 2026-04-21 21:10 | 43.64644 | 7.19650 | 235 ft | 139 kts | 45° |
| 2026-04-21 21:10 | 43.65312 | 7.20577 | 45 ft | 138 kts | 45° |
| 2026-04-21 21:11 | 43.65883 | 7.21372 | 21 ft | 79 kts | 45° |
| 2026-04-21 21:11 | 43.66120 | 7.21698 | 21 ft | 35 kts | 45° |
| 2026-04-21 21:11 | 43.66224 | 7.21739 | 22 ft | 14 kts | 325° |
| 2026-04-21 21:11 | 43.66278 | 7.21668 | 21 ft | 6 kts | 315° |
| 2026-04-21 21:12 | 43.66281 | 7.21663 | 21 ft | 1 kts | 315° |
| 2026-04-21 21:12 | 43.66305 | 7.21629 | 23 ft | 9 kts | 314° |
| 2026-04-21 21:12 | 43.66357 | 7.21556 | 21 ft | 11 kts | 314° |
| 2026-04-21 21:12 | 43.66354 | 7.21432 | 23 ft | 18 kts | 254° |
| 2026-04-21 21:13 | 43.66333 | 7.21255 | 21 ft | 19 kts | 262° |
| 2026-04-21 21:13 | 43.66312 | 7.21074 | 21 ft | 18 kts | 262° |
| 2026-04-21 21:13 | 43.66324 | 7.20936 | 21 ft | 13 kts | 272° |
| 2026-04-21 21:13 | 43.66311 | 7.20822 | 22 ft | 12 kts | 260° |
| 2026-04-21 21:14 | 43.66267 | 7.20760 | 23 ft | 10 kts | 171° |
| 2026-04-21 21:14 | 43.66233 | 7.20717 | 21 ft | 7 kts | 261° |
| 2026-04-21 21:14 | 43.66227 | 7.20666 | 21 ft | 0 kts | 261° |
| 2026-04-21 21:14 | 43.66227 | 7.20665 | 24 ft | 0 kts | 261° |
| 2026-04-21 21:15 | 43.66227 | 7.20666 | 24 ft | 0 kts | 261° |
| 2026-04-21 21:16 | 43.66227 | 7.20665 | 21 ft | 0 kts | 261° |